»·PEaware :: N263JM KMAE-KTUS

N263JM :: KMAE-KTUS

FLIGHT INFORMATION

Flight Status: Arrived
Operator: Privately registered:
United States
More flights under this callsign
Pilot: Thomas S. (17015)
Aircraft: CANADAIR CL-600 CHALLENGER
(CL60)
More flights by this aircraft type
Origin: KMAE Madera Mun
United States
Destination: KTUS Tucson Intl
United States
More flights between these airports :: More routes between these airports
Route: FRA CABAB Q174 SKANN Q15 CHILY J6 DRK J11 PXR DINGO5
File this flight plan on PilotEdge
Remarks: RMK / FERRY FLIGHT
Altitude:
(Current/Filed)
41,000ft
Speed:
(Current/Filed)
460kts
Departed: 07-Aug-23 02:05 PM
Arrived: 07-Aug-23 03:38 PM
Distance/Time
Traveled:
538nm/1:32
Distance/Time
To Go:
Arrived

Flight Plot

Page will automatically refresh every two minutes.

Flight plan parsing failed; only flown route is shown


Map Options




Map Legend


Flown Route
Filed Route
Departure Airport
Arrival Airport
Navaid (VOR, NDB)
Fix

Horizontal Profiles

Position Reports

Time Latitude Longitude Heading Altitude Ground
Speed
07-Aug-23 13:31 36.989624 -120.110092 306 261ft 0kts
07-Aug-23 13:32 36.989624 -120.110092 306 261ft 0kts
07-Aug-23 13:33 36.989624 -120.110092 306 261ft 0kts
07-Aug-23 13:34 36.989624 -120.110092 306 261ft 0kts
07-Aug-23 13:35 36.989624 -120.110092 306 261ft 0kts
07-Aug-23 13:36 36.989624 -120.110092 306 261ft 0kts
07-Aug-23 13:37 36.989624 -120.110092 306 261ft 0kts
07-Aug-23 13:38 36.989624 -120.110092 306 261ft 0kts
07-Aug-23 13:39 36.989624 -120.110092 306 261ft 0kts
07-Aug-23 13:40 36.989624 -120.110092 306 261ft 0kts
07-Aug-23 13:41 36.989624 -120.110092 306 261ft 0kts
07-Aug-23 13:42 36.989624 -120.110092 306 261ft 0kts
07-Aug-23 13:43 36.989624 -120.110092 306 261ft 0kts
07-Aug-23 13:44 36.989624 -120.110092 306 261ft 0kts
07-Aug-23 13:45 36.989624 -120.110092 306 261ft 0kts
07-Aug-23 13:46 36.989624 -120.110092 306 261ft 0kts
07-Aug-23 13:47 36.989624 -120.110092 306 261ft 0kts
07-Aug-23 13:48 36.989624 -120.110092 306 261ft 0kts
07-Aug-23 13:49 36.989624 -120.110092 306 261ft 0kts
07-Aug-23 13:50 36.989624 -120.110092 306 261ft 0kts
07-Aug-23 13:51 36.989624 -120.110092 306 261ft 0kts
07-Aug-23 13:52 36.989624 -120.110092 306 261ft 0kts
07-Aug-23 13:53 36.989624 -120.110092 306 261ft 0kts
07-Aug-23 13:54 36.989624 -120.110092 306 261ft 0kts
07-Aug-23 13:55 36.989624 -120.110092 306 261ft 0kts
07-Aug-23 13:56 36.989624 -120.110092 306 261ft 0kts
07-Aug-23 13:57 36.989624 -120.110092 306 261ft 0kts
07-Aug-23 13:58 36.989624 -120.110092 306 261ft 0kts
07-Aug-23 13:59 36.989624 -120.110092 306 261ft 0kts
07-Aug-23 14:00 36.989632 -120.110105 306 261ft 1kts
07-Aug-23 14:01 36.988087 -120.109387 135 261ft 13kts
07-Aug-23 14:02 36.985025 -120.105606 132 262ft 9kts
07-Aug-23 14:03 36.983570 -120.105399 226 263ft 8kts
07-Aug-23 14:04 36.995864 -120.121596 314 818ft 168kts
07-Aug-23 14:05 37.029803 -120.100019 78 5506ft 206kts
07-Aug-23 14:06 37.042507 -120.017756 79 9878ft 286kts
07-Aug-23 14:07 37.058361 -119.912086 79 11954ft 327kts
07-Aug-23 14:08 37.074768 -119.801320 79 16911ft 333kts
07-Aug-23 14:09 37.091989 -119.684194 78 20781ft 356kts
07-Aug-23 14:10 37.111581 -119.562068 74 24035ft 377kts
07-Aug-23 14:11 37.137784 -119.431470 74 26982ft 399kts
07-Aug-23 14:12 37.164951 -119.294925 75 29586ft 418kts
07-Aug-23 14:13 37.193662 -119.149499 75 31528ft 444kts
07-Aug-23 14:14 37.223965 -118.995224 75 33165ft 469kts
07-Aug-23 14:15 37.255766 -118.833051 74 34684ft 488kts
07-Aug-23 14:16 37.284071 -118.666504 82 36370ft 494kts
07-Aug-23 14:17 37.297605 -118.492843 84 37852ft 499kts
07-Aug-23 14:18 37.309928 -118.320396 86 39037ft 504kts
07-Aug-23 14:19 37.322376 -118.145811 85 40275ft 499kts
07-Aug-23 14:20 37.334540 -117.972825 84 41187ft 498kts
07-Aug-23 14:21 37.347017 -117.795199 86 41206ft 517kts
07-Aug-23 14:22 37.359519 -117.613026 85 41258ft 532kts
07-Aug-23 14:23 37.367185 -117.425235 96 41303ft 541kts
07-Aug-23 14:24 37.325541 -117.249271 125 41358ft 523kts
07-Aug-23 14:25 37.235684 -117.111501 145 41317ft 503kts
07-Aug-23 14:26 37.125764 -117.007556 159 41329ft 485kts
07-Aug-23 14:27 37.008847 -116.922105 158 41333ft 487kts
07-Aug-23 14:28 36.893424 -116.832832 156 41286ft 487kts
07-Aug-23 14:29 36.779200 -116.741781 156 41234ft 489kts
07-Aug-23 14:30 36.665402 -116.649939 155 41268ft 488kts
07-Aug-23 14:31 36.557624 -116.543770 143 41190ft 505kts
07-Aug-23 14:32 36.456438 -116.421176 143 41165ft 503kts
07-Aug-23 14:33 36.355984 -116.299770 143 41190ft 501kts
07-Aug-23 14:34 36.261499 -116.169802 132 41145ft 515kts
07-Aug-23 14:35 36.177135 -116.024996 131 41110ft 516kts
07-Aug-23 14:36 36.093057 -115.881285 131 41120ft 514kts
07-Aug-23 14:37 36.009729 -115.739639 132 41093ft 516kts
07-Aug-23 14:38 35.923879 -115.594631 131 41123ft 514kts
07-Aug-23 14:39 35.845610 -115.462507 130 41120ft 514kts
07-Aug-23 14:40 35.756343 -115.312166 132 41082ft 513kts
07-Aug-23 14:41 35.671934 -115.171454 132 41103ft 511kts
07-Aug-23 14:42 35.587309 -115.030778 131 41092ft 513kts
07-Aug-23 14:43 35.502367 -114.889994 131 41065ft 511kts
07-Aug-23 14:44 35.427184 -114.740877 118 41037ft 518kts
07-Aug-23 14:45 35.369815 -114.577492 115 41073ft 521kts
07-Aug-23 14:46 35.312804 -114.414316 115 41035ft 520kts
07-Aug-23 14:47 35.256116 -114.253300 116 41068ft 518kts
07-Aug-23 14:48 35.198632 -114.091194 116 41096ft 519kts
07-Aug-23 14:49 35.140657 -113.928682 116 41107ft 519kts
07-Aug-23 14:50 35.082590 -113.766875 116 41108ft 517kts
07-Aug-23 14:51 35.024503 -113.605973 115 41164ft 517kts
07-Aug-23 14:52 34.966151 -113.445184 115 41166ft 517kts
07-Aug-23 14:53 34.908866 -113.288091 116 41164ft 516kts
07-Aug-23 14:54 34.850654 -113.129371 116 41237ft 516kts
07-Aug-23 14:55 34.791954 -112.970010 116 41269ft 516kts
07-Aug-23 14:56 34.734599 -112.810318 109 41247ft 516kts
07-Aug-23 14:57 34.710196 -112.639820 102 41243ft 514kts
07-Aug-23 14:58 34.651050 -112.482942 130 41238ft 506kts
07-Aug-23 14:59 34.544742 -112.377075 159 41223ft 487kts
07-Aug-23 15:00 34.417897 -112.333535 173 41246ft 474kts
07-Aug-23 15:01 34.288565 -112.294277 170 41214ft 475kts
07-Aug-23 15:02 34.161069 -112.250123 168 41144ft 477kts
07-Aug-23 15:03 34.033877 -112.203074 167 41087ft 477kts
07-Aug-23 15:04 33.906890 -112.154445 167 41074ft 477kts
07-Aug-23 15:05 33.780709 -112.105292 166 40332ft 469kts
07-Aug-23 15:06 33.658693 -112.057385 167 38434ft 453kts
07-Aug-23 15:07 33.540059 -112.010684 166 36379ft 442kts
07-Aug-23 15:08 33.423707 -111.968995 172 34349ft 427kts
07-Aug-23 15:09 33.308305 -111.950666 182 32177ft 411kts
07-Aug-23 15:10 33.194914 -111.941572 179 29993ft 399kts
07-Aug-23 15:11 33.086203 -111.930188 178 27868ft 385kts
07-Aug-23 15:12 32.981416 -111.918491 178 25759ft 371kts
07-Aug-23 15:13 32.881758 -111.899232 157 23698ft 365kts
07-Aug-23 15:14 32.797652 -111.834207 148 21740ft 350kts
07-Aug-23 15:15 32.719273 -111.770078 148 19907ft 332kts
07-Aug-23 15:16 32.643792 -111.707954 148 18048ft 325kts
07-Aug-23 15:17 32.570613 -111.647685 148 16289ft 316kts
07-Aug-23 15:18 32.511408 -111.571130 128 14504ft 317kts
07-Aug-23 15:19 32.460048 -111.487605 129 13953ft 312kts
07-Aug-23 15:20 32.404460 -111.408268 138 13304ft 309kts
07-Aug-23 15:21 32.338760 -111.344305 153 11933ft 301kts
07-Aug-23 15:22 32.265534 -111.297773 153 10469ft 299kts
07-Aug-23 15:23 32.192034 -111.252528 153 8710ft 293kts
07-Aug-23 15:24 32.119761 -111.208458 153 8544ft 292kts
07-Aug-23 15:25 32.046789 -111.164018 153 8508ft 292kts
07-Aug-23 15:26 31.989255 -111.099455 125 8512ft 284kts
07-Aug-23 15:27 31.945010 -111.026009 125 8530ft 265kts
07-Aug-23 15:28 31.902389 -110.956208 125 7682ft 261kts
07-Aug-23 15:29 31.876213 -110.883617 60 6331ft 235kts
07-Aug-23 15:30 31.913693 -110.831418 43 6323ft 190kts
07-Aug-23 15:31 31.950794 -110.787360 42 5755ft 183kts
07-Aug-23 15:32 31.990495 -110.792515 318 5318ft 170kts
07-Aug-23 15:33 32.024565 -110.832530 314 4853ft 168kts
07-Aug-23 15:34 32.055436 -110.868554 316 3907ft 140kts
07-Aug-23 15:35 32.083947 -110.901819 319 3314ft 140kts
07-Aug-23 15:36 32.108724 -110.930810 315 2628ft 98kts
07-Aug-23 15:37 32.120221 -110.944258 314 2591ft 34kts
07-Aug-23 15:38 32.123447 -110.949115 224 2576ft 2kts
07-Aug-23 15:40 32.118441 -110.955006 221 2570ft 13kts
07-Aug-23 15:41 32.114900 -110.955657 178 2572ft 8kts
07-Aug-23 15:42 32.114580 -110.955079 270 2574ft 3kts
07-Aug-23 15:43 32.114580 -110.955132 270 2574ft 0kts
07-Aug-23 15:44 32.114580 -110.955132 270 2574ft 0kts
07-Aug-23 15:45 32.114580 -110.955132 270 2574ft 0kts
07-Aug-23 15:46 32.114580 -110.955132 270 2574ft 0kts

Navigation Log

Ident Type
Flight plan parsing failed, navigation log unavailable